This is the latest recevied weather packets stored in our database for station/object KTXK. If no packets are shown the sender has not sent any weather packets the latest 1 day(s).
| Time | Temp. | Humidity | Pressure | Rain* | Wind** | Luminosity | Snow |
|---|---|---|---|---|---|---|---|
| 1778115224 | 12.78° C | 87% | 1014.2 hPa | - | - | - | - |
| 1778114625 | 12.78° C | 87% | 1014.2 hPa | - | - | - | - |
| 1778112825 | 12.78° C | 87% | 1014.2 hPa | - | - | - | - |
| 1778111624 | 12.78° C | 87% | 1013.5 hPa | - | - | - | - |
| 1778111021 | 12.78° C | 87% | 1013.9 hPa | - | - | - | - |
| 1778108023 | 13.89° C | 87% | 1013.9 hPa | - | - | - | - |
| 1778107421 | 13.89° C | 87% | 1013.9 hPa | - | - | - | - |
| 1778106225 | 13.89° C | 87% | 1014.2 hPa | - | - | - | - |
| 1778103222 | 15° C | 82% | 1013.2 hPa | - | - | - | - |
| 1778102020 | 15° C | 82% | 1013.2 hPa | - | - | - | - |
| 1778100820 | 15.56° C | 77% | 1012.5 hPa | - | - | - | - |
| 1778100220 | 15.56° C | 77% | 1012.5 hPa | - | - | - | - |
| 1778099621 | 15.56° C | 77% | 1012.5 hPa | - | - | - | - |
| 1778095420 | 12.78° C | 93% | 1014.2 hPa | - | - | - | - |
| 1778094821 | 12.78° C | 93% | 1014.2 hPa | - | - | - | - |
| 1778093623 | 13.89° C | 87% | 1015.2 hPa | - | - | - | - |
| 1778092425 | 13.89° C | 87% | 1015.2 hPa | - | - | - | - |
| 1778091824 | 13.89° C | 87% | 1015.2 hPa | - | - | - | - |
| 1778088224 | 13.89° C | 93% | 1015.2 hPa | - | - | - | - |
| 1778086426 | 13.89° C | 93% | 1014.2 hPa | - | - | - | - |
| 1778085822 | 13.89° C | 93% | 1014.2 hPa | - | - | - | - |
| 1778083546 | 13.89° C | 93% | 1014.2 hPa | - | - | - | - |
| 1778082828 | 13.89° C | 93% | 1013.2 hPa | - | - | - | - |
| 1778078623 | 15.56° C | 87% | 1012.9 hPa | - | - | - | - |
| 1778076220 | 16.67° C | 88% | 1012.5 hPa | - | - | - | - |
* Rain since midnight (hover to see other rain measurements)
** Current wind speed in m/s (hover to see current wind gust speed)